createdAt,value
2018-04-02T00:00:43.136Z,29.2
2018-04-02T00:01:31.888Z,29.1
2018-04-02T00:02:22.214Z,28.9
2018-04-02T00:03:13.458Z,28.8
2018-04-02T00:04:03.134Z,28.7
2018-04-02T00:04:54.164Z,28.5
2018-04-02T00:05:42.341Z,28.4
2018-04-02T00:06:33.506Z,28.3
2018-04-02T00:07:22.223Z,28.1
2018-04-02T00:08:13.913Z,28
2018-04-02T00:09:03.246Z,27.9
2018-04-02T00:10:44.388Z,27.7
2018-04-02T00:11:34.479Z,27.7
2018-04-02T00:12:24.370Z,27.6
2018-04-02T00:13:14.754Z,27.5
2018-04-02T00:14:04.360Z,27.5
2018-04-02T00:14:53.411Z,27.1
2018-04-02T00:15:44.124Z,27.5
2018-04-02T00:16:34.462Z,27.3
2018-04-02T00:17:25.177Z,27
2018-04-02T00:18:14.825Z,26.9
2018-04-02T00:19:03.729Z,26.8
2018-04-02T00:19:54.398Z,26.9
2018-04-02T00:20:44.067Z,27.1
2018-04-02T00:21:34.407Z,27.4
2018-04-02T00:22:25.382Z,27.6
2018-04-02T00:24:05.260Z,28
2018-04-02T00:24:54.602Z,28.1
2018-04-02T00:25:45.240Z,28.3
2018-04-02T00:26:34.652Z,28.4
2018-04-02T00:27:24.347Z,28.6
2018-04-02T00:28:15.287Z,28.7
2018-04-02T00:29:05.666Z,28.8
2018-04-02T00:29:55.254Z,28.9
2018-04-02T00:30:44.158Z,29
2018-04-02T00:31:35.657Z,29.1
2018-04-02T00:32:25.125Z,29.2
2018-04-02T00:33:15.677Z,29.3
2018-04-02T00:34:06.116Z,29.3
2018-04-02T00:34:55.890Z,29.4
2018-04-02T00:35:46.874Z,29.4
2018-04-02T00:36:36.642Z,29.4
2018-04-02T00:37:27.563Z,29.3
2018-04-02T00:38:17.605Z,29.2
2018-04-02T00:39:08.057Z,29.1
2018-04-02T00:39:56.764Z,28.9
2018-04-02T00:40:46.967Z,28.8
2018-04-02T00:41:36.833Z,28.6
2018-04-02T00:42:26.932Z,28.5
2018-04-02T00:43:17.527Z,28.4
2018-04-02T00:44:07.607Z,28.2
2018-04-02T00:44:57.360Z,28.1
2018-04-02T00:45:47.545Z,28
2018-04-02T00:46:38.084Z,27.9
2018-04-02T00:48:17.821Z,27.8
2018-04-02T00:49:08.454Z,27.7
2018-04-02T00:49:57.878Z,27.6
2018-04-02T00:50:48.891Z,27.6
2018-04-02T00:51:38.094Z,27.4
2018-04-02T00:52:28.049Z,27.4
2018-04-02T00:53:18.733Z,27.5
2018-04-02T00:54:08.618Z,27.2
2018-04-02T00:54:59.151Z,27.1
2018-04-02T00:55:48.363Z,27
2018-04-02T00:56:38.910Z,27
2018-04-02T00:57:26.504Z,27.2
2018-04-02T00:58:17.603Z,27.4
2018-04-02T00:59:08.356Z,27.6
2018-04-02T00:59:58.165Z,27.9
2018-04-02T01:00:47.675Z,28
2018-04-02T01:01:37.668Z,28.2
2018-04-02T01:02:27.467Z,28.4
2018-04-02T01:03:18.345Z,28.4
2018-04-02T01:04:07.208Z,28.6
2018-04-02T01:04:57.508Z,28.8
2018-04-02T01:05:47.695Z,28.9
2018-04-02T01:06:38.560Z,28.9
2018-04-02T01:07:27.508Z,29.1
2018-04-02T01:08:17.893Z,29.1
2018-04-02T01:09:08.106Z,29.3
2018-04-02T01:09:59.265Z,29.4
2018-04-02T01:10:49.363Z,29.4
2018-04-02T01:11:38.759Z,29.4
2018-04-02T01:12:29.534Z,29.5
2018-04-02T01:13:18.615Z,29.5
2018-04-02T01:14:08.329Z,29.4
2018-04-02T01:14:57.801Z,29.3
2018-04-02T01:15:49.480Z,29.2
2018-04-02T01:16:39.189Z,29.1
2018-04-02T01:17:28.781Z,28.9
2018-04-02T01:18:19.007Z,28.8
2018-04-02T01:19:09.009Z,28.6
2018-04-02T01:19:59.424Z,28.5
2018-04-02T01:20:49.131Z,28.4
2018-04-02T01:21:39.476Z,28.3
2018-04-02T01:22:30.027Z,28.1
2018-04-02T01:23:18.831Z,28.1
2018-04-02T01:24:08.164Z,27.9
2018-04-02T01:24:59.934Z,27.9
2018-04-02T01:26:39.013Z,27.8
2018-04-02T01:27:29.226Z,27.7
2018-04-02T01:28:18.573Z,27.6
2018-04-02T01:29:09.158Z,27.4
2018-04-02T01:29:59.965Z,27.5
2018-04-02T01:30:49.829Z,27.6
2018-04-02T01:31:39.194Z,27.3
2018-04-02T01:32:30.585Z,27.1
2018-04-02T01:33:19.166Z,27.1
2018-04-02T01:34:08.919Z,27.1
2018-04-02T01:35:00.687Z,27.3
2018-04-02T01:35:50.736Z,27.5
2018-04-02T01:36:40.859Z,27.8
2018-04-02T01:37:29.926Z,28
2018-04-02T01:38:19.540Z,28.2
2018-04-02T01:39:10.128Z,28.3
2018-04-02T01:40:00.465Z,28.4
2018-04-02T01:40:50.991Z,28.6
2018-04-02T01:41:41.335Z,28.7
2018-04-02T01:42:31.496Z,28.9
2018-04-02T01:43:21.315Z,28.9
2018-04-02T01:44:10.615Z,29.1
2018-04-02T01:45:00.365Z,29.1
2018-04-02T01:45:51.008Z,29.3
2018-04-02T01:46:41.092Z,29.4
2018-04-02T01:47:30.668Z,29.4
2018-04-02T01:48:22.453Z,29.4
2018-04-02T01:49:12.777Z,29.5
2018-04-02T01:50:03.327Z,29.6
2018-04-02T01:50:52.679Z,29.6
2018-04-02T01:51:42.991Z,29.5
2018-04-02T01:52:33.279Z,29.4
2018-04-02T01:53:22.560Z,29.3
2018-04-02T01:54:12.088Z,29.1
2018-04-02T01:55:01.130Z,28.9
2018-04-02T01:55:52.227Z,28.8
2018-04-02T01:56:42.495Z,28.8
2018-04-02T01:57:30.412Z,28.6
2018-04-02T01:58:22.141Z,28.4
2018-04-02T01:59:10.964Z,28.3
2018-04-02T02:00:02.343Z,28.2
2018-04-02T02:00:50.736Z,28.1
2018-04-02T02:01:42.709Z,28
2018-04-02T02:02:31.907Z,27.9
2018-04-02T02:04:11.934Z,27.8
2018-04-02T02:05:01.185Z,27.7
2018-04-02T02:05:50.734Z,27.6
2018-04-02T02:06:43.619Z,27.6
2018-04-02T02:07:32.494Z,27.3
2018-04-02T02:08:21.866Z,27.8
2018-04-02T02:09:12.052Z,27.4
2018-04-02T02:10:01.802Z,27.3
2018-04-02T02:10:53.331Z,27.2
2018-04-02T02:11:42.029Z,27.1
2018-04-02T02:12:32.518Z,27.3
2018-04-02T02:13:22.844Z,27.5
2018-04-02T02:14:12.598Z,27.8
2018-04-02T02:15:02.011Z,27.9
2018-04-02T02:15:53.109Z,28.1
2018-04-02T02:16:42.503Z,28.3
2018-04-02T02:17:32.505Z,28.4
2018-04-02T02:18:22.836Z,28.6
2018-04-02T02:19:12.854Z,28.7
2018-04-02T02:20:04.099Z,28.8
2018-04-02T02:20:54.250Z,28.9
2018-04-02T02:21:43.596Z,29.1
2018-04-02T02:22:33.883Z,29.1
2018-04-02T02:23:23.290Z,29.3
2018-04-02T02:24:13.083Z,29.4
2018-04-02T02:25:04.799Z,29.4
2018-04-02T02:25:54.662Z,29.5
2018-04-02T02:26:43.258Z,29.6
2018-04-02T02:27:33.744Z,29.6
2018-04-02T02:28:23.603Z,29.6
2018-04-02T02:29:13.228Z,29.6
2018-04-02T02:30:03.173Z,29.4
2018-04-02T02:30:53.760Z,29.4
2018-04-02T02:31:44.494Z,29.2
2018-04-02T02:32:33.359Z,29.1
2018-04-02T02:33:24.577Z,28.9
2018-04-02T02:34:14.608Z,28.8
2018-04-02T02:35:04.556Z,28.6
2018-04-02T02:35:53.737Z,28.5
2018-04-02T02:36:44.681Z,28.4
2018-04-02T02:37:35.400Z,28.3
2018-04-02T02:38:25.349Z,28.2
2018-04-02T02:39:13.976Z,28.1
2018-04-02T02:40:06.212Z,28
2018-04-02T02:40:54.980Z,28
2018-04-02T02:41:45.722Z,27.9
2018-04-02T02:43:25.719Z,27.8
2018-04-02T02:44:15.773Z,27.7
2018-04-02T02:45:05.389Z,27.4
2018-04-02T02:45:55.690Z,27.8
2018-04-02T02:46:44.821Z,27.6
2018-04-02T02:47:36.821Z,27.4
2018-04-02T02:48:25.820Z,27.3
2018-04-02T02:49:15.218Z,27.3
2018-04-02T02:50:06.404Z,27.3
2018-04-02T02:50:57.623Z,27.5
2018-04-02T02:51:47.116Z,27.8
2018-04-02T02:52:38.081Z,28
2018-04-02T02:53:26.921Z,28.2
2018-04-02T02:54:17.829Z,28.3
2018-04-02T02:55:07.386Z,28.4
2018-04-02T02:55:56.885Z,28.3
2018-04-02T02:56:47.944Z,28.1
2018-04-02T02:57:38.063Z,28.1
2018-04-02T02:58:27.304Z,28.4
2018-04-02T02:59:17.642Z,28.6
2018-04-02T03:00:07.722Z,28.3
2018-04-02T03:00:58.026Z,27.9
2018-04-02T03:01:47.809Z,27.6
2018-04-02T03:02:36.873Z,27.4
2018-04-02T03:03:29.101Z,27.5
2018-04-02T03:04:17.453Z,27.8
2018-04-02T03:05:06.379Z,28
2018-04-02T03:05:56.227Z,28.2
2018-04-02T03:06:47.066Z,28.4
2018-04-02T03:07:36.692Z,28.6
2018-04-02T03:08:26.712Z,28.7
2018-04-02T03:09:16.871Z,28.8
2018-04-02T03:10:07.456Z,28.9
2018-04-02T03:10:55.743Z,29.1
2018-04-02T03:11:46.427Z,29.2
2018-04-02T03:12:35.611Z,29.3
2018-04-02T03:13:28.146Z,29.4
2018-04-02T03:14:17.877Z,29.4
2018-04-02T03:15:06.895Z,29.6
2018-04-02T03:15:58.207Z,29.6
2018-04-02T03:16:47.967Z,29.6
2018-04-02T03:17:37.399Z,29.6
2018-04-02T03:18:26.637Z,29.4
2018-04-02T03:19:16.393Z,29.3
2018-04-02T03:20:08.210Z,29.2
2018-04-02T03:20:58.162Z,29.1
2018-04-02T03:21:47.153Z,28.9
2018-04-02T03:22:38.710Z,28.8
2018-04-02T03:23:28.527Z,28.8
2018-04-02T03:24:18.842Z,28.5
2018-04-02T03:25:23.402Z,28.4
2018-04-02T03:25:57.710Z,28.3
2018-04-02T03:26:48.065Z,28.2
2018-04-02T03:27:37.336Z,28.1
2018-04-02T03:28:28.033Z,28
2018-04-02T03:29:17.978Z,27.9
2018-04-02T03:30:08.137Z,27.9
2018-04-02T03:31:49.628Z,27.8
2018-04-02T03:32:38.550Z,27.7
2018-04-02T03:33:28.088Z,27.6
2018-04-02T03:34:17.877Z,27.4
2018-04-02T03:35:59.783Z,27.5
2018-04-02T03:36:49.509Z,27.4
2018-04-02T03:37:39.541Z,27.3
2018-04-02T03:38:28.440Z,27.2
2018-04-02T03:39:18.686Z,27.4
2018-04-02T03:40:10.236Z,27.6
2018-04-02T03:40:59.343Z,27.9
2018-04-02T03:41:49.003Z,28.1
2018-04-02T03:42:38.568Z,28.3
2018-04-02T03:43:29.692Z,28.4
2018-04-02T03:44:19.859Z,28.6
2018-04-02T03:45:08.513Z,28.7
2018-04-02T03:45:59.635Z,28.8
2018-04-02T03:46:48.364Z,28.9
2018-04-02T03:47:38.518Z,29.1
2018-04-02T03:48:31.816Z,29.2
2018-04-02T03:49:20.952Z,29.3
2018-04-02T03:50:11.028Z,29.4
2018-04-02T03:51:01.086Z,29.5
2018-04-02T03:51:51.181Z,29.6
2018-04-02T03:52:41.492Z,29.6
2018-04-02T03:53:31.256Z,29.7
2018-04-02T03:54:22.205Z,29.6
2018-04-02T03:55:11.722Z,29.5
2018-04-02T03:56:01.742Z,29.4
2018-04-02T03:56:52.427Z,29.3
2018-04-02T03:57:42.758Z,29.1
2018-04-02T03:58:31.929Z,29
2018-04-02T03:59:20.633Z,28.9
2018-04-02T04:00:12.921Z,28.8
2018-04-02T04:01:01.788Z,28.8
2018-04-02T04:01:52.765Z,28.7
2018-04-02T04:02:41.645Z,28.6
2018-04-02T04:03:32.577Z,28.6
2018-04-02T04:04:22.307Z,28.5
2018-04-02T04:05:12.139Z,28.4
2018-04-02T04:06:01.915Z,28.4
2018-04-02T04:06:53.052Z,28.3
2018-04-02T04:07:41.204Z,28.3
2018-04-02T04:08:31.007Z,28.2
2018-04-02T04:09:20.787Z,28.1
2018-04-02T04:11:01.874Z,27.9
2018-04-02T04:11:51.486Z,27.9
2018-04-02T04:12:42.126Z,27.6
2018-04-02T04:13:32.397Z,27.4
2018-04-02T04:14:21.736Z,27.3
2018-04-02T04:15:11.698Z,27.3
2018-04-02T04:16:01.590Z,27.5
2018-04-02T04:16:52.026Z,27.8
2018-04-02T04:17:42.603Z,28
2018-04-02T04:18:32.221Z,28.2
2018-04-02T04:19:22.269Z,28.4
2018-04-02T04:20:11.760Z,28.6
2018-04-02T04:21:00.972Z,28.7
2018-04-02T04:21:51.212Z,28.8
2018-04-02T04:22:41.731Z,28.9
2018-04-02T04:23:32.346Z,29.1
2018-04-02T04:24:22.606Z,29.2
2018-04-02T04:25:11.528Z,29.3
2018-04-02T04:26:01.530Z,29.4
2018-04-02T04:26:51.978Z,29.4
2018-04-02T04:27:43.941Z,29.6
2018-04-02T04:28:32.065Z,29.6
2018-04-02T04:29:21.865Z,29.6
2018-04-02T04:30:12.636Z,29.6
2018-04-02T04:31:02.347Z,29.5
2018-04-02T04:31:53.841Z,29.4
2018-04-02T04:32:42.680Z,29.3
2018-04-02T04:33:32.238Z,29.1
2018-04-02T04:34:23.308Z,28.9
2018-04-02T04:35:11.672Z,28.9
2018-04-02T04:36:02.651Z,28.8
2018-04-02T04:36:53.077Z,28.7
2018-04-02T04:37:42.756Z,28.6
2018-04-02T04:38:32.410Z,28.5
2018-04-02T04:39:23.308Z,28.4
2018-04-02T04:40:14.158Z,28.4
2018-04-02T04:41:03.494Z,28.3
2018-04-02T04:41:52.459Z,28.3
2018-04-02T04:42:44.089Z,28.2
2018-04-02T04:43:33.643Z,28.1
2018-04-02T04:44:23.715Z,28.1
2018-04-02T04:45:12.787Z,27.9
2018-04-02T04:46:04.236Z,27.7
2018-04-02T04:46:53.682Z,28.1
2018-04-02T04:47:43.794Z,27.7
2018-04-02T04:48:33.512Z,27.5
2018-04-02T04:49:24.496Z,27.4
2018-04-02T04:50:13.132Z,27.3
2018-04-02T04:51:04.454Z,27.4
2018-04-02T04:51:54.634Z,27.7
2018-04-02T04:52:44.497Z,27.9
2018-04-02T04:53:35.468Z,28.2
2018-04-02T04:54:24.224Z,28.4
2018-04-02T04:55:14.339Z,28.5
2018-04-02T04:56:04.662Z,28.7
2018-04-02T04:56:54.701Z,28.8
2018-04-02T04:57:45.077Z,28.9
2018-04-02T04:58:34.504Z,29.1
2018-04-02T04:59:24.831Z,29.2
2018-04-02T05:00:15.671Z,29.3
2018-04-02T05:01:05.238Z,29.4
2018-04-02T05:01:54.606Z,29.4
2018-04-02T05:02:45.795Z,29.6
2018-04-02T05:03:35.808Z,29.6
2018-04-02T05:04:25.396Z,29.6
2018-04-02T05:05:15.621Z,29.6
2018-04-02T05:06:05.233Z,29.4
2018-04-02T05:06:55.337Z,29.3
2018-04-02T05:07:45.836Z,29.2
2018-04-02T05:08:35.493Z,29.1
2018-04-02T05:09:26.614Z,28.9
2018-04-02T05:10:16.086Z,28.8
2018-04-02T05:11:04.868Z,28.7
2018-04-02T05:11:55.883Z,28.6
2018-04-02T05:12:46.522Z,28.4
2018-04-02T05:13:35.410Z,28.3
2018-04-02T05:14:26.420Z,28.3
2018-04-02T05:15:15.065Z,28.2
2018-04-02T05:16:06.677Z,28.1
2018-04-02T05:16:56.226Z,28
2018-04-02T05:17:45.940Z,27.9
2018-04-02T05:19:26.456Z,27.8
2018-04-02T05:20:16.394Z,27.7
2018-04-02T05:21:07.073Z,27.6
2018-04-02T05:21:57.115Z,27.5
2018-04-02T05:22:46.405Z,27.4
2018-04-02T05:23:35.846Z,27.4
2018-04-02T05:24:27.006Z,27.4
2018-04-02T05:25:16.389Z,27.3
2018-04-02T05:26:06.015Z,27.2
2018-04-02T05:26:57.597Z,27.4
2018-04-02T05:27:49.212Z,27.6
2018-04-02T05:28:38.439Z,27.3
2018-04-02T05:29:29.056Z,27.1
2018-04-02T05:30:19.129Z,27.1
2018-04-02T05:31:08.851Z,27.1
2018-04-02T05:31:58.236Z,27.3
2018-04-02T05:32:48.756Z,27.5
2018-04-02T05:34:29.229Z,28
2018-04-02T05:35:19.544Z,28.2
2018-04-02T05:36:09.015Z,28.4
2018-04-02T05:36:59.091Z,28.5
2018-04-02T05:37:47.949Z,28.7
2018-04-02T05:38:39.765Z,28.8
2018-04-02T05:39:28.282Z,28.9
2018-04-02T05:40:17.538Z,29.1
2018-04-02T05:41:07.214Z,29.2
2018-04-02T05:41:57.429Z,29.3
2018-04-02T05:42:47.947Z,29.4
2018-04-02T05:43:38.390Z,29.4
2018-04-02T05:44:29.448Z,29.5
2018-04-02T05:45:17.810Z,29.6
2018-04-02T05:46:08.318Z,29.5
2018-04-02T05:46:58.346Z,29.4
2018-04-02T05:47:48.214Z,29.3
2018-04-02T05:48:37.780Z,29.1
2018-04-02T05:49:28.777Z,29
2018-04-02T05:50:18.380Z,28.9
2018-04-02T05:51:07.472Z,28.8
2018-04-02T05:51:59.871Z,28.6
2018-04-02T05:52:48.168Z,28.5
2018-04-02T05:53:39.118Z,28.4
2018-04-02T05:54:28.549Z,28.3
2018-04-02T05:55:18.947Z,28.1
2018-04-02T05:56:08.382Z,28
2018-04-02T05:56:59.408Z,27.9
2018-04-02T05:58:39.091Z,27.7
2018-04-02T05:59:30.729Z,27.6
2018-04-02T06:00:18.820Z,27.5
2018-04-02T06:01:09.513Z,27.4
2018-04-02T06:01:59.717Z,27.3
2018-04-02T06:02:49.678Z,27.3
2018-04-02T06:03:39.929Z,27.2
2018-04-02T06:04:30.406Z,27.1
2018-04-02T06:05:20.262Z,27.1
2018-04-02T06:06:10.031Z,27
2018-04-02T06:07:00.276Z,26.9
2018-04-02T06:07:49.940Z,26.9
2018-04-02T06:08:39.722Z,27.1
2018-04-02T06:09:29.402Z,27.1
2018-04-02T06:10:20.019Z,27.1
2018-04-02T06:11:10.773Z,27
2018-04-02T06:11:59.765Z,27
2018-04-02T06:12:49.153Z,27
2018-04-02T06:13:39.980Z,27.2
2018-04-02T06:14:29.942Z,27.5
2018-04-02T06:15:21.061Z,27.8
2018-04-02T06:16:09.953Z,28
2018-04-02T06:17:01.157Z,28.2
2018-04-02T06:17:49.989Z,28.4
2018-04-02T06:18:41.736Z,28.5
2018-04-02T06:19:30.262Z,28.7
2018-04-02T06:20:19.368Z,28.8
2018-04-02T06:21:10.500Z,28.9
2018-04-02T06:22:01.561Z,29.1
2018-04-02T06:22:50.443Z,29.2
2018-04-02T06:23:41.400Z,29.3
2018-04-02T06:24:32.260Z,29.4
2018-04-02T06:25:21.525Z,29.4
2018-04-02T06:26:11.910Z,29.5
2018-04-02T06:27:01.501Z,29.6
2018-04-02T06:27:51.602Z,29.5
2018-04-02T06:28:41.459Z,29.4
2018-04-02T06:29:31.030Z,29.3
2018-04-02T06:30:21.469Z,29.1
2018-04-02T06:31:12.335Z,29
2018-04-02T06:32:02.097Z,28.9
2018-04-02T06:32:50.783Z,28.8
2018-04-02T06:33:41.717Z,28.6
2018-04-02T06:34:31.872Z,28.5
2018-04-02T06:35:21.173Z,28.4
2018-04-02T06:36:11.498Z,28.2
2018-04-02T06:37:02.702Z,28.1
2018-04-02T06:37:52.619Z,28
2018-04-02T06:38:41.482Z,27.9
2018-04-02T06:40:22.099Z,27.7
2018-04-02T06:41:11.386Z,27.6
2018-04-02T06:42:02.614Z,27.5
2018-04-02T06:42:52.136Z,27.4
2018-04-02T06:43:41.896Z,27.4
2018-04-02T06:44:32.118Z,27.3
2018-04-02T06:45:22.473Z,27.2
2018-04-02T06:46:12.546Z,27.2
2018-04-02T06:47:02.633Z,27.1
2018-04-02T06:47:52.958Z,27.1
2018-04-02T06:48:44.002Z,27
2018-04-02T06:49:32.781Z,26.9
2018-04-02T06:50:23.484Z,26.9
2018-04-02T06:51:12.887Z,26.8
2018-04-02T06:52:03.260Z,26.8
2018-04-02T06:52:53.360Z,26.7
2018-04-02T06:53:43.055Z,26.7
2018-04-02T06:54:33.699Z,26.6
2018-04-02T06:55:23.943Z,26.6
2018-04-02T06:56:13.056Z,26.5
2018-04-02T06:57:03.418Z,26.5
2018-04-02T06:57:53.865Z,26.4
2018-04-02T06:58:43.603Z,26.4
2018-04-02T06:59:33.911Z,26.3
2018-04-02T07:00:23.661Z,26.3
2018-04-02T07:01:14.189Z,26.2
2018-04-02T07:02:04.069Z,26.2
2018-04-02T07:02:53.982Z,26.1
2018-04-02T07:03:43.474Z,26.1
2018-04-02T07:04:34.191Z,26
2018-04-02T07:05:24.062Z,25.9
2018-04-02T07:06:13.972Z,25.9
2018-04-02T07:07:03.962Z,25.8
2018-04-02T07:07:54.434Z,25.8
2018-04-02T07:08:44.325Z,25.8
2018-04-02T07:09:34.302Z,25.7
2018-04-02T07:10:25.323Z,25.6
2018-04-02T07:11:13.850Z,25.6
2018-04-02T07:12:04.077Z,25.6
2018-04-02T07:12:54.367Z,25.4
2018-04-02T07:13:44.192Z,25.4
2018-04-02T07:14:34.442Z,25.4
2018-04-02T07:15:25.511Z,25.3
2018-04-02T07:16:14.492Z,25.3
2018-04-02T07:17:03.974Z,25.3
2018-04-02T07:17:55.302Z,25.2
2018-04-02T07:18:45.554Z,25.1
2018-04-02T07:19:35.301Z,25.1
2018-04-02T07:20:25.270Z,25.1
2018-04-02T07:21:15.086Z,25.1
2018-04-02T07:22:04.005Z,25
2018-04-02T07:22:54.649Z,24.9
2018-04-02T07:23:45.989Z,24.9
2018-04-02T07:24:35.939Z,24.9
2018-04-02T07:25:25.846Z,24.8
2018-04-02T07:26:14.988Z,24.8
2018-04-02T07:27:05.844Z,24.7
2018-04-02T07:27:53.564Z,24.7
2018-04-02T07:28:45.880Z,24.6
2018-04-02T07:29:36.427Z,24.6
2018-04-02T07:30:25.130Z,24.6
2018-04-02T07:31:15.264Z,24.5
2018-04-02T07:32:05.998Z,24.4
2018-04-02T07:32:55.936Z,24.4
2018-04-02T07:33:45.593Z,24.4
2018-04-02T07:34:35.201Z,24.4
2018-04-02T07:35:25.691Z,24.3
2018-04-02T07:36:16.750Z,24.3
2018-04-02T07:37:06.399Z,24.3
2018-04-02T07:37:55.953Z,24.3
2018-04-02T07:38:47.250Z,24.2
2018-04-02T07:39:37.741Z,24.2
2018-04-02T07:40:25.830Z,24.1
2018-04-02T07:41:15.871Z,24.1
2018-04-02T07:42:07.289Z,24.1
2018-04-02T07:42:56.865Z,24.1
2018-04-02T07:43:47.255Z,24
2018-04-02T07:44:36.668Z,24
2018-04-02T07:45:27.490Z,23.9
2018-04-02T07:46:16.840Z,23.9
2018-04-02T07:47:07.393Z,23.9
2018-04-02T07:47:56.324Z,23.9
2018-04-02T07:48:47.532Z,23.9
2018-04-02T07:49:37.636Z,23.8
2018-04-02T07:50:27.865Z,23.8
2018-04-02T07:51:17.114Z,23.8
2018-04-02T07:52:06.834Z,23.8
2018-04-02T07:52:57.010Z,23.8
2018-04-02T07:53:46.761Z,23.7
2018-04-02T07:54:37.953Z,23.6
2018-04-02T07:55:27.494Z,23.7
2018-04-02T07:56:17.100Z,23.6
2018-04-02T07:57:08.661Z,23.6
2018-04-02T07:57:58.727Z,23.6
2018-04-02T07:58:47.742Z,23.6
2018-04-02T07:59:37.522Z,23.6
2018-04-02T08:00:28.434Z,23.5
2018-04-02T08:01:17.930Z,23.5
2018-04-02T08:02:07.897Z,23.5
2018-04-02T08:02:59.321Z,23.4
2018-04-02T08:03:48.390Z,23.4
2018-04-02T08:04:37.802Z,23.4
2018-04-02T08:05:28.977Z,23.4
2018-04-02T08:06:17.757Z,23.4
2018-04-02T08:07:08.480Z,23.4
2018-04-02T08:07:58.955Z,23.3
2018-04-02T08:08:49.292Z,23.3
2018-04-02T08:09:38.007Z,23.3
2018-04-02T08:10:28.344Z,23.3
2018-04-02T08:11:20.702Z,23.3
2018-04-02T08:12:09.225Z,23.3
2018-04-02T08:12:58.389Z,23.2
2018-04-02T08:13:49.142Z,23.2
2018-04-02T08:14:38.960Z,23.2
2018-04-02T08:15:28.929Z,23.2
2018-04-02T08:16:19.390Z,23.1
2018-04-02T08:17:08.252Z,23.1
2018-04-02T08:17:59.855Z,23.1
2018-04-02T08:18:48.878Z,23
2018-04-02T08:19:40.543Z,23
2018-04-02T08:20:29.771Z,22.9
2018-04-02T08:21:20.286Z,22.9
2018-04-02T08:22:10.206Z,22.9
2018-04-02T08:23:00.458Z,22.9
2018-04-02T08:23:49.427Z,22.9
2018-04-02T08:24:38.602Z,22.9
2018-04-02T08:25:30.419Z,22.9
2018-04-02T08:26:20.844Z,22.8
2018-04-02T08:27:10.083Z,22.8
2018-04-02T08:28:00.069Z,22.8
2018-04-02T08:28:50.244Z,22.8
2018-04-02T08:29:40.439Z,22.8
2018-04-02T08:30:29.257Z,22.8
2018-04-02T08:31:19.797Z,22.7
2018-04-02T08:32:10.522Z,22.7
2018-04-02T08:33:01.044Z,22.7
2018-04-02T08:33:51.637Z,22.6
2018-04-02T08:34:39.516Z,22.6
2018-04-02T08:35:30.825Z,22.6
2018-04-02T08:36:20.284Z,22.6
2018-04-02T08:37:11.251Z,22.6
2018-04-02T08:38:01.311Z,22.6
2018-04-02T08:38:52.600Z,22.5
2018-04-02T08:39:41.089Z,22.5
2018-04-02T08:40:31.465Z,22.5
2018-04-02T08:41:21.151Z,22.4
2018-04-02T08:42:11.803Z,22.4
2018-04-02T08:43:00.776Z,22.4
2018-04-02T08:43:50.312Z,22.4
2018-04-02T08:44:40.236Z,22.4
2018-04-02T08:45:30.701Z,22.4
2018-04-02T08:46:21.999Z,22.4
2018-04-02T08:47:11.119Z,22.4
2018-04-02T08:48:00.909Z,22.3
2018-04-02T08:48:51.388Z,22.4
2018-04-02T08:49:40.956Z,22.3
2018-04-02T08:50:31.217Z,22.3
2018-04-02T08:51:21.716Z,22.3
2018-04-02T08:52:10.718Z,22.3
2018-04-02T08:53:02.784Z,22.3
2018-04-02T08:53:52.235Z,22.3
2018-04-02T08:54:41.441Z,22.3
2018-04-02T08:55:31.949Z,22.3
2018-04-02T08:56:22.537Z,22.3
2018-04-02T08:57:13.115Z,22.3
2018-04-02T08:58:01.741Z,22.3
2018-04-02T08:58:51.415Z,22.3
2018-04-02T08:59:42.284Z,22.2
2018-04-02T09:00:31.770Z,22.2
2018-04-02T09:01:22.157Z,22.2
2018-04-02T09:02:12.063Z,22.2
2018-04-02T09:03:01.628Z,22.2
2018-04-02T09:03:52.664Z,22.2
2018-04-02T09:04:42.135Z,22.2
2018-04-02T09:05:33.355Z,22.1
2018-04-02T09:06:23.099Z,22.2
2018-04-02T09:07:12.897Z,22.1
2018-04-02T09:08:03.560Z,22.1
2018-04-02T09:08:52.983Z,22.1
2018-04-02T09:09:42.476Z,22.1
2018-04-02T09:10:32.964Z,22.1
2018-04-02T09:11:23.020Z,22.1
2018-04-02T09:12:13.607Z,22.1
2018-04-02T09:13:03.154Z,22.1
2018-04-02T09:13:54.019Z,22.1
2018-04-02T09:14:41.501Z,22.1
2018-04-02T09:15:33.996Z,22.1
2018-04-02T09:16:23.714Z,22.1
2018-04-02T09:17:13.162Z,22.1
2018-04-02T09:18:03.712Z,22
2018-04-02T09:18:53.927Z,22.1
2018-04-02T09:19:43.249Z,22.1
2018-04-02T09:20:33.471Z,22
2018-04-02T09:21:24.304Z,22
2018-04-02T09:22:13.196Z,22
2018-04-02T09:23:03.937Z,21.9
2018-04-02T09:23:54.418Z,22
2018-04-02T09:24:44.246Z,21.9
2018-04-02T09:25:33.588Z,22
2018-04-02T09:26:25.241Z,21.9
2018-04-02T09:27:13.991Z,21.9
2018-04-02T09:28:03.206Z,21.9
2018-04-02T09:28:52.730Z,21.9
2018-04-02T09:29:44.384Z,21.9
2018-04-02T09:30:34.613Z,21.9
2018-04-02T09:31:24.111Z,21.9
2018-04-02T09:32:14.063Z,21.9
2018-04-02T09:33:05.641Z,21.9
2018-04-02T09:33:54.953Z,21.9
2018-04-02T09:34:45.841Z,21.9
2018-04-02T09:35:35.486Z,21.8
2018-04-02T09:36:25.031Z,21.8
2018-04-02T09:37:15.533Z,21.8
2018-04-02T09:38:05.755Z,21.9
2018-04-02T09:38:55.608Z,21.9
2018-04-02T09:39:45.887Z,21.8
2018-04-02T09:40:35.833Z,21.8
2018-04-02T09:41:24.707Z,21.8
2018-04-02T09:42:16.205Z,21.8
2018-04-02T09:43:07.497Z,21.8
2018-04-02T09:43:56.967Z,21.8
2018-04-02T09:44:47.334Z,21.8
2018-04-02T09:45:36.879Z,21.8
2018-04-02T09:46:27.108Z,21.8
2018-04-02T09:47:17.754Z,21.8
2018-04-02T09:48:08.138Z,21.8
2018-04-02T09:48:58.171Z,21.8
2018-04-02T09:49:47.941Z,21.8
2018-04-02T09:50:38.002Z,21.8
2018-04-02T09:51:27.772Z,21.8
2018-04-02T09:52:18.392Z,21.8
2018-04-02T09:53:08.201Z,21.8
2018-04-02T09:53:57.984Z,21.8
2018-04-02T09:54:48.596Z,21.8
2018-04-02T09:55:38.089Z,21.7
2018-04-02T09:56:28.442Z,21.7
2018-04-02T09:57:18.788Z,21.7
2018-04-02T09:58:08.280Z,21.7
2018-04-02T09:58:58.289Z,21.7
2018-04-02T09:59:47.853Z,21.7
2018-04-02T10:00:39.072Z,21.7
2018-04-02T10:01:29.064Z,21.7
2018-04-02T10:02:18.851Z,21.7
2018-04-02T10:03:08.321Z,21.7
2018-04-02T10:03:58.667Z,21.7
2018-04-02T10:04:52.799Z,21.7
2018-04-02T10:05:37.666Z,21.7
2018-04-02T10:06:30.070Z,21.6
2018-04-02T10:07:18.716Z,21.7
2018-04-02T10:08:09.029Z,21.7
2018-04-02T10:08:59.313Z,21.6
2018-04-02T10:09:48.901Z,21.6
2018-04-02T10:10:39.432Z,21.6
2018-04-02T10:11:29.504Z,21.6
2018-04-02T10:12:19.063Z,21.6
2018-04-02T10:13:09.098Z,21.6
2018-04-02T10:13:59.483Z,21.6
2018-04-02T10:14:49.530Z,21.6
2018-04-02T10:15:40.299Z,21.6
2018-04-02T10:16:29.928Z,21.6
2018-04-02T10:17:19.090Z,21.6
2018-04-02T10:18:09.786Z,21.6
2018-04-02T10:18:59.771Z,21.6
2018-04-02T10:19:48.328Z,21.6
2018-04-02T10:20:38.239Z,21.6
2018-04-02T10:21:28.266Z,21.6
2018-04-02T10:22:17.981Z,21.6
2018-04-02T10:23:08.041Z,21.6
2018-04-02T10:23:59.828Z,21.6
2018-04-02T10:24:48.208Z,21.6
2018-04-02T10:25:37.609Z,21.6
2018-04-02T10:26:28.485Z,21.6
2018-04-02T10:27:18.477Z,21.6
2018-04-02T10:28:09.518Z,21.6
2018-04-02T10:28:58.817Z,21.6
2018-04-02T10:29:49.576Z,21.5
2018-04-02T10:30:37.770Z,21.6
2018-04-02T10:31:29.149Z,21.5
2018-04-02T10:32:18.787Z,21.5
2018-04-02T10:33:10.173Z,21.5
2018-04-02T10:33:59.883Z,21.5
2018-04-02T10:34:50.217Z,21.6
2018-04-02T10:35:38.689Z,21.6
2018-04-02T10:36:27.806Z,21.5
2018-04-02T10:37:19.240Z,21.6
2018-04-02T10:38:08.996Z,21.5
2018-04-02T10:38:59.457Z,21.5
2018-04-02T10:39:48.989Z,21.6
2018-04-02T10:40:39.594Z,21.5
2018-04-02T10:41:29.616Z,21.5
2018-04-02T10:42:19.389Z,21.5
2018-04-02T10:43:09.971Z,21.5
2018-04-02T10:43:59.234Z,21.5
2018-04-02T10:44:50.187Z,21.6
2018-04-02T10:45:38.679Z,21.5
2018-04-02T10:46:30.474Z,21.5
2018-04-02T10:47:19.683Z,21.5
2018-04-02T10:48:10.099Z,21.5
2018-04-02T10:49:00.547Z,21.5
2018-04-02T10:49:49.578Z,21.5
2018-04-02T10:50:40.383Z,21.5
2018-04-02T10:51:31.581Z,21.4
2018-04-02T10:52:21.378Z,21.5
2018-04-02T10:53:10.716Z,21.4
2018-04-02T10:54:00.733Z,21.5
2018-04-02T10:54:51.326Z,21.5
2018-04-02T10:55:40.076Z,21.4
2018-04-02T10:56:31.220Z,21.5
2018-04-02T10:57:20.331Z,21.5
2018-04-02T10:58:09.671Z,21.4
2018-04-02T10:59:01.709Z,21.4
2018-04-02T10:59:52.547Z,21.4
2018-04-02T11:00:40.395Z,21.4
2018-04-02T11:01:31.708Z,21.4
2018-04-02T11:02:21.306Z,21.4
2018-04-02T11:03:11.468Z,21.4
2018-04-02T11:04:01.431Z,21.4
2018-04-02T11:04:51.556Z,21.5
2018-04-02T11:05:42.326Z,21.4
2018-04-02T11:06:31.419Z,21.4
2018-04-02T11:07:19.972Z,21.4
2018-04-02T11:08:11.989Z,21.4
2018-04-02T11:09:01.407Z,21.4
2018-04-02T11:09:50.845Z,21.4
2018-04-02T11:10:42.107Z,21.4
2018-04-02T11:11:32.726Z,21.4
2018-04-02T11:12:20.960Z,21.4
2018-04-02T11:13:11.685Z,21.4
2018-04-02T11:14:01.103Z,21.4
2018-04-02T11:14:51.719Z,21.4
2018-04-02T11:15:41.121Z,21.4
2018-04-02T11:16:31.798Z,21.4
2018-04-02T11:17:20.893Z,21.4
2018-04-02T11:18:12.519Z,21.4
2018-04-02T11:19:02.259Z,21.4
2018-04-02T11:19:53.563Z,21.4